Weather at Verde Valley Medical Clinic Camp Verde Helipad

Public forecast

Using degrees Fahrenheit for public forecast. Weather courtesy of forecast.io.

Closest aviation weather report (METAR) to Verde Valley Medical Clinic Camp Verde Helipad

Closest report is Sedona Airport, 17.5 nm (32.3 km) NNE. Retrieved 2021/06/23 02:15 UTC (10 minutes ago):

KSEZ 230215Z AUTO 16012G22KT 10SM SCT120 31/05 A3004 RMK AO2

Closest aviation forecast (TAF) to Verde Valley Medical Clinic Camp Verde Helipad

Closest forecast is Sedona Airport, 17.5 nm (32.3 km) NNE. Retrieved 2021-06-23 00:22 UTC (2 hours ago):

TAF KSEZ 222320Z 2300/2324 25011G18KT 6SM FU BR BKN150 FM230500 VRB06KT 6SM FU BR OVC150 FM231000 05010KT P6SM OVC110 FM231800 24010G18KT P6SM VCSH BKN100 PROB30 2320/2324 5SM TSRA BR OVC050CB